Time;durP1;ratioP1;P1;durP2;ratioP2;P2;SDS_P1;SDS_P2;PMS_P1;PMS_P2;Temp;Humidity;BMP_temperature;BMP_pressure;BME280_temperature;BME280_humidity;BME280_pressure;Samples;Min_cycle;Max_cycle;Signal;HPM_P1;HPM_P2
2022/12/21 00:01:53;;;;;;;21.65;8.65;;;;;;;-1.35;68.78;102669.09;5072276;28;20033;-78
2022/12/21 00:04:18;;;;;;;10.02;5.75;;;;;;;-1.39;69.18;102674.88;5055811;28;20043;-78
2022/12/21 00:06:44;;;;;;;9.00;5.28;;;;;;;-1.47;69.37;102656.88;5071908;28;20074;-77
2022/12/21 00:09:28;;;;;;;5.15;3.75;;;;;;;-1.32;69.49;102672.59;5071846;28;20517;-78
2022/12/21 00:11:54;;;;;;;9.63;7.00;;;;;;;-1.43;69.50;102657.81;5071447;28;20457;-78
2022/12/21 00:14:19;;;;;;;11.45;6.03;;;;;;;-1.38;69.37;102666.44;5072073;28;20028;-78
2022/12/21 00:16:45;;;;;;;8.68;4.60;;;;;;;-1.49;69.31;102659.34;5071953;28;20064;-78
2022/12/21 00:19:16;;;;;;;7.57;3.92;;;;;;;-1.55;69.16;102638.84;5088505;28;20071;-77
2022/12/21 00:21:41;;;;;;;5.05;3.53;;;;;;;-1.51;69.57;102663.50;5055742;28;20421;-78
2022/12/21 00:24:07;;;;;;;1.52;1.42;;;;;;;-1.62;69.68;102642.00;5038561;28;20046;-78
2022/12/21 00:26:34;;;;;;;6.93;4.15;;;;;;;-1.59;69.60;102657.31;5055207;28;20428;-77
2022/12/21 00:29:00;;;;;;;18.27;5.78;;;;;;;-1.56;69.73;102659.97;5054901;28;20512;-78
2022/12/21 00:31:28;;;;;;;7.30;3.40;;;;;;;-1.59;69.52;102659.84;5072255;28;20099;-78
2022/12/21 00:33:53;;;;;;;13.07;6.30;;;;;;;-1.70;69.95;102650.16;5071175;28;20063;-78
2022/12/21 00:36:19;;;;;;;6.05;4.30;;;;;;;-1.58;70.23;102664.09;5054624;28;20021;-78
2022/12/21 00:38:46;;;;;;;20.55;4.55;;;;;;;-1.53;70.08;102661.75;5055039;28;20100;-77
2022/12/21 00:41:13;;;;;;;7.57;4.53;;;;;;;-1.60;69.87;102642.03;5071225;28;20028;-78
2022/12/21 00:43:40;;;;;;;12.57;5.28;;;;;;;-1.54;69.64;102653.25;5054881;28;20028;-78
2022/12/21 00:46:06;;;;;;;7.80;3.47;;;;;;;-1.43;69.71;102656.16;5038427;28;20037;-78
2022/12/21 00:48:32;;;;;;;7.70;5.53;;;;;;;-1.39;70.11;102654.56;5071407;28;20403;-78
2022/12/21 00:51:05;;;;;;;4.20;3.65;;;;;;;-1.48;70.75;102650.91;5054815;28;20032;-78
2022/12/21 00:53:30;;;;;;;10.57;6.30;;;;;;;-1.58;70.61;102623.50;5054573;28;20025;-78
2022/12/21 00:55:57;;;;;;;10.30;7.68;;;;;;;-1.33;69.87;102645.47;5054543;28;20431;-78
2022/12/21 00:58:23;;;;;;;7.97;4.90;;;;;;;-1.25;70.00;102643.19;5054251;28;20037;-78
2022/12/21 01:00:49;;;;;;;4.13;3.67;;;;;;;-1.26;69.49;102636.38;5037676;28;20056;-77
2022/12/21 01:03:14;;;;;;;6.15;4.72;;;;;;;-1.60;68.76;102579.44;5071102;28;20052;-78
2022/12/21 01:05:40;;;;;;;8.95;5.90;;;;;;;-1.49;68.90;102597.56;5054016;28;20033;-78
2022/12/21 01:08:05;;;;;;;7.97;5.25;;;;;;;-1.26;69.05;102624.56;5071855;28;20127;-78
2022/12/21 01:10:31;;;;;;;7.95;6.20;;;;;;;-1.31;68.98;102620.13;5070343;28;20571;-78
2022/12/21 01:12:57;;;;;;;9.50;6.32;;;;;;;-1.31;69.30;102621.00;5037596;28;20083;-78
2022/12/21 01:15:23;;;;;;;10.68;5.45;;;;;;;-1.23;69.33;102616.16;5070729;28;20031;-78
2022/12/21 01:17:48;;;;;;;6.50;5.53;;;;;;;-1.22;69.01;102620.41;5053795;28;20056;-78
2022/12/21 01:20:14;;;;;;;14.05;3.88;;;;;;;-1.30;68.95;102617.63;5054372;28;20028;-78
2022/12/21 01:22:39;;;;;;;16.35;7.95;;;;;;;-1.33;69.55;102606.53;5053973;28;20032;-78
2022/12/21 01:25:05;;;;;;;5.03;4.28;;;;;;;-1.36;69.54;102609.84;5071180;28;20486;-78
2022/12/21 01:27:30;;;;;;;7.80;6.18;;;;;;;-1.38;69.76;102608.03;5053984;28;20028;-78
2022/12/21 01:29:56;;;;;;;11.23;5.95;;;;;;;-1.34;69.57;102607.34;5053778;28;20035;-78
2022/12/21 01:32:22;;;;;;;8.40;6.97;;;;;;;-1.48;69.25;102589.97;5070489;28;20082;-78
2022/12/21 01:34:47;;;;;;;8.68;5.63;;;;;;;-1.33;69.24;102601.44;5071694;28;21377;-77
2022/12/21 01:37:13;;;;;;;10.25;6.63;;;;;;;-1.37;69.25;102594.56;5053403;28;20058;-78
2022/12/21 01:39:38;;;;;;;8.90;6.28;;;;;;;-1.40;69.71;102595.31;5086773;28;20039;-78
2022/12/21 01:42:04;;;;;;;7.90;5.25;;;;;;;-1.33;69.83;102601.44;5070597;28;20025;-78
2022/12/21 01:45:10;;;;;;;9.77;5.60;;;;;;;-1.32;70.40;102600.63;5053630;28;20103;-78
2022/12/21 01:47:45;;;;;;;8.18;2.97;;;;;;;-1.32;70.21;102595.56;5055982;28;20021;-78
2022/12/21 01:50:34;;;;;;;14.43;6.32;;;;;;;-1.33;69.90;102593.84;5070332;28;20102;-78
2022/12/21 01:53:03;;;;;;;7.03;4.70;;;;;;;-1.35;69.91;102586.19;5069760;28;20017;-78
2022/12/21 01:55:28;;;;;;;13.13;6.32;;;;;;;-1.56;69.91;102573.66;5053258;28;20036;-78
2022/12/21 01:57:54;;;;;;;14.45;5.70;;;;;;;-1.56;70.52;102588.91;5086701;28;20025;-78
2022/12/21 02:00:19;;;;;;;12.73;8.10;;;;;;;-1.60;70.69;102588.75;5053234;28;20055;-77
2022/12/21 02:02:56;;;;;;;5.22;4.05;;;;;;;-1.69;70.81;102571.53;5086858;28;20405;-77
2022/12/21 02:05:56;;;;;;;6.60;4.05;;;;;;;-1.63;70.99;102569.22;5053217;28;20032;-77
2022/12/21 02:08:21;;;;;;;10.90;4.88;;;;;;;-1.62;71.25;102581.06;5064300;28;20044;-78
2022/12/21 02:10:47;;;;;;;8.98;5.22;;;;;;;-1.78;71.51;102563.63;5069849;28;20028;-78
2022/12/21 02:13:16;;;;;;;17.30;7.15;;;;;;;-1.74;71.09;102550.25;5052903;28;20074;-78
2022/12/21 02:15:52;;;;;;;5.00;3.55;;;;;;;-1.64;70.89;102564.94;5069600;28;20077;-78
2022/12/21 02:18:21;;;;;;;7.80;6.40;;;;;;;-1.86;72.04;102571.00;5069500;28;20143;-78
2022/12/21 02:21:25;;;;;;;4.30;3.85;;;;;;;-1.78;71.94;102556.88;5069615;28;20506;-78
2022/12/21 02:24:22;;;;;;;13.80;2.55;;;;;;;-2.00;72.04;102510.47;5061778;28;20037;-79
2022/12/21 02:27:02;;;;;;;8.32;4.47;;;;;;;-1.77;71.87;102547.59;5069263;28;20035;-79
2022/12/21 02:29:51;;;;;;;7.80;5.65;;;;;;;-1.68;71.47;102541.94;5069451;28;20058;-78
2022/12/21 02:32:17;;;;;;;9.63;6.03;;;;;;;-1.77;71.89;102525.63;5069474;28;20150;-79
2022/12/21 02:35:08;;;;;;;8.10;5.63;;;;;;;-1.70;71.67;102531.75;5070791;28;20506;-79
2022/12/21 02:37:33;;;;;;;10.88;5.22;;;;;;;-1.66;71.92;102525.97;5068940;28;20064;-78
2022/12/21 02:40:00;;;;;;;5.63;3.47;;;;;;;-1.62;71.40;102517.63;5069422;28;20063;-78
2022/12/21 02:45:42;;;;;;;8.60;4.05;;;;;;;-1.40;71.40;102509.00;5070539;28;20113;-79
2022/12/21 02:48:10;;;;;;;8.38;5.60;;;;;;;-1.53;71.33;102509.44;5069662;28;20498;-79
2022/12/21 02:50:38;;;;;;;7.47;4.60;;;;;;;-1.39;71.46;102507.31;5070585;28;20497;-79
2022/12/21 02:53:10;;;;;;;13.10;5.72;;;;;;;-1.50;70.94;102490.06;5052713;28;20066;-79
2022/12/21 02:55:36;;;;;;;9.15;6.15;;;;;;;-1.42;71.07;102481.84;5054477;28;20028;-79
2022/12/21 02:58:18;;;;;;;4.63;2.33;;;;;;;-1.41;70.33;102483.56;5039903;28;20058;-78
2022/12/21 03:01:12;;;;;;;5.45;3.08;;;;;;;-1.54;71.79;102478.13;5073141;28;20124;-79
2022/12/21 03:03:50;;;;;;;7.63;6.82;;;;;;;-1.56;71.62;102482.28;5074606;28;20024;-79
2022/12/21 03:06:18;;;;;;;9.68;6.85;;;;;;;-1.53;71.21;102473.91;5074119;28;20103;-79
2022/12/21 03:09:05;;;;;;;5.13;4.25;;;;;;;-1.54;71.27;102475.59;5074480;28;20115;-79
2022/12/21 03:12:12;;;;;;;5.30;3.15;;;;;;;-1.48;71.89;102470.66;5074217;28;20406;-79
2022/12/21 03:15:12;;;;;;;7.82;3.22;;;;;;;-1.52;71.58;102463.78;5065688;28;20502;-79
2022/12/21 03:17:56;;;;;;;10.90;4.47;;;;;;;-1.46;71.55;102458.06;5058651;28;20470;-79
2022/12/21 03:20:25;;;;;;;10.88;5.13;;;;;;;-1.49;71.67;102448.66;5072622;28;20431;-79
2022/12/21 03:23:09;;;;;;;6.72;5.03;;;;;;;-1.54;72.07;102436.66;5073144;28;20026;-78
2022/12/21 03:25:43;;;;;;;8.65;3.78;;;;;;;-1.58;71.81;102442.44;5041853;28;20036;-79
2022/12/21 03:28:12;;;;;;;8.10;5.10;;;;;;;-1.46;71.41;102463.13;5040396;28;20063;-79
2022/12/21 03:30:41;;;;;;;6.03;3.92;;;;;;;-1.56;71.65;102440.81;5056356;28;20032;-79
2022/12/21 03:33:08;;;;;;;10.52;6.53;;;;;;;-1.46;70.97;102450.44;5056066;28;20504;-79
2022/12/21 03:35:45;;;;;;;10.98;5.50;;;;;;;-1.59;71.68;102451.72;5055581;28;20021;-78
2022/12/21 03:38:15;;;;;;;7.00;4.13;;;;;;;-1.56;71.78;102446.75;5056542;28;20054;-79
2022/12/21 03:40:41;;;;;;;9.52;4.60;;;;;;;-1.43;70.90;102453.06;5056277;28;20097;-79
2022/12/21 03:43:09;;;;;;;14.23;3.97;;;;;;;-1.35;70.85;102464.31;5056089;28;20039;-79
2022/12/21 03:45:38;;;;;;;10.00;6.53;;;;;;;-1.62;70.50;102418.66;5039496;28;20029;-79
2022/12/21 03:48:14;;;;;;;6.47;3.88;;;;;;;-1.32;70.24;102466.06;5055943;28;20490;-79
2022/12/21 03:50:42;;;;;;;11.82;6.15;;;;;;;-1.53;70.58;102446.84;5072016;28;20029;-79
2022/12/21 03:53:36;;;;;;;21.55;6.20;;;;;;;-1.67;71.26;102457.38;5056274;28;20056;-79
2022/12/21 03:56:04;;;;;;;7.60;5.25;;;;;;;-1.66;71.18;102446.44;5058550;28;20055;-79
2022/12/21 03:58:30;;;;;;;5.90;5.30;;;;;;;-1.57;71.35;102451.78;5039098;28;20126;-79
2022/12/21 04:01:03;;;;;;;8.00;3.85;;;;;;;-1.49;71.60;102448.66;5036793;28;20482;-83
2022/12/21 04:03:31;;;;;;;8.27;5.68;;;;;;;-1.54;71.22;102451.88;5055334;28;20536;-78
2022/12/21 04:06:05;;;;;;;11.40;6.40;;;;;;;-1.53;71.12;102435.84;5055047;28;20032;-77
2022/12/21 04:08:31;;;;;;;8.20;5.57;;;;;;;-1.48;71.60;102436.81;5071250;28;20063;-78
2022/12/21 04:10:57;;;;;;;7.93;5.50;;;;;;;-1.35;71.00;102427.91;5055239;28;20029;-77
2022/12/21 04:13:23;;;;;;;6.00;4.57;;;;;;;-1.28;70.32;102452.63;5053868;28;20032;-77
2022/12/21 04:16:03;;;;;;;10.05;6.38;;;;;;;-1.38;70.59;102448.94;5055086;28;20079;-77
2022/12/21 04:21:12;;;;;;;4.85;3.50;;;;;;;-1.41;71.16;102442.94;5071379;28;20079;-77
2022/12/21 04:29:06;;;;;;;13.15;4.88;;;;;;;-1.58;71.56;102458.53;5072673;28;20089;-77
2022/12/21 04:31:31;;;;;;;3.88;2.60;;;;;;;-1.73;71.82;102432.69;5071811;28;20040;-77
2022/12/21 04:33:56;;;;;;;6.47;4.80;;;;;;;-1.67;71.72;102450.66;5054389;28;20409;-78
2022/12/21 04:39:20;;;;;;;10.70;4.97;;;;;;;-1.73;72.45;102445.38;5035554;28;20146;-78
2022/12/21 04:41:45;;;;;;;8.32;4.68;;;;;;;-1.78;72.30;102427.47;5054242;28;20024;-77
2022/12/21 04:44:10;;;;;;;5.03;4.55;;;;;;;-1.84;72.46;102411.22;5072579;28;20036;-77
2022/12/21 04:46:37;;;;;;;11.85;6.03;;;;;;;-1.68;71.98;102426.06;5072346;28;20413;-77
2022/12/21 04:49:03;;;;;;;8.38;6.30;;;;;;;-1.61;71.90;102434.75;5072124;28;20108;-77
2022/12/21 04:51:29;;;;;;;12.02;4.60;;;;;;;-1.48;71.97;102437.66;5071526;28;20025;-77
2022/12/21 04:53:54;;;;;;;24.10;6.75;;;;;;;-1.59;71.21;102411.13;5054400;28;20055;-77
2022/12/21 04:56:20;;;;;;;9.23;6.38;;;;;;;-1.54;71.85;102441.72;5054496;28;20078;-77
2022/12/21 04:58:45;;;;;;;9.52;7.00;;;;;;;-1.56;71.44;102439.16;5070936;28;20029;-77
2022/12/21 05:01:12;;;;;;;14.50;5.68;;;;;;;-1.58;71.57;102435.69;5053893;28;20024;-77
2022/12/21 05:03:38;;;;;;;10.35;6.55;;;;;;;-1.55;72.00;102437.47;5037746;28;20083;-76
2022/12/21 05:06:04;;;;;;;9.00;3.70;;;;;;;-1.53;71.81;102443.44;5070773;28;20412;-76
2022/12/21 05:08:29;;;;;;;8.52;6.82;;;;;;;-1.61;72.35;102439.81;5070847;28;20025;-77
2022/12/21 05:10:55;;;;;;;8.77;4.30;;;;;;;-1.49;71.74;102438.50;5070593;28;20029;-77
2022/12/21 05:13:20;;;;;;;4.13;3.25;;;;;;;-1.56;71.51;102434.06;5037566;28;20503;-77
2022/12/21 05:15:46;;;;;;;11.32;4.55;;;;;;;-1.60;71.48;102428.84;5069294;28;20059;-80
2022/12/21 05:18:11;;;;;;;8.40;5.40;;;;;;;-1.68;72.22;102413.38;5053235;28;20162;-79
2022/12/21 05:20:37;;;;;;;19.63;5.72;;;;;;;-1.68;72.16;102398.16;5070446;28;20403;-77
2022/12/21 05:23:02;;;;;;;17.67;7.57;;;;;;;-1.69;71.74;102378.69;5053842;28;20025;-80
2022/12/21 05:25:28;;;;;;;14.52;7.03;;;;;;;-1.64;71.88;102410.13;5051326;28;20412;-86
2022/12/21 05:27:53;;;;;;;7.32;5.65;;;;;;;-1.74;72.87;102400.53;5036534;28;20025;-79
2022/12/21 05:30:19;;;;;;;15.25;5.93;;;;;;;-1.69;72.53;102400.66;5068213;28;20032;-80
2022/12/21 05:32:44;;;;;;;35.67;7.80;;;;;;;-1.75;72.84;102401.34;5066471;28;20031;-89
2022/12/21 05:35:10;;;;;;;6.45;4.47;;;;;;;-1.78;73.03;102393.63;5053343;28;20029;-89
2022/12/21 05:37:35;;;;;;;19.27;8.00;;;;;;;-1.84;72.20;102360.47;5049532;28;20036;-83
2022/12/21 05:40:01;;;;;;;6.78;4.32;;;;;;;-1.69;72.60;102381.22;5071979;28;20402;-83
2022/12/21 05:42:26;;;;;;;10.25;4.88;;;;;;;-1.64;72.42;102389.84;5053384;28;20079;-79
2022/12/21 05:44:52;;;;;;;15.00;8.93;;;;;;;-1.66;72.17;102380.47;5069593;28;20028;-80
2022/12/21 05:47:17;;;;;;;5.80;5.30;;;;;;;-1.71;72.20;102367.63;5053468;28;20498;-86
2022/12/21 05:49:43;;;;;;;11.18;6.90;;;;;;;-1.61;72.29;102391.59;5050028;28;20036;-92
2022/12/21 05:52:08;;;;;;;8.02;5.13;;;;;;;-1.60;72.41;102385.69;5035327;28;20047;-78
2022/12/21 05:54:33;;;;;;;9.10;5.90;;;;;;;-1.58;72.08;102369.69;5033404;28;20033;-85
2022/12/21 05:56:59;;;;;;;10.43;6.25;;;;;;;-1.57;71.65;102381.59;5033244;28;20040;-80
2022/12/21 05:59:24;;;;;;;10.07;6.80;;;;;;;-1.57;72.54;102381.59;5061741;28;20102;-91
2022/12/21 06:01:50;;;;;;;8.38;4.88;;;;;;;-1.68;72.19;102372.78;5067021;28;20067;-86
2022/12/21 06:04:15;;;;;;;5.88;4.30;;;;;;;-1.75;72.04;102350.59;5048550;28;20029;-80
2022/12/21 06:06:41;;;;;;;3.90;2.55;;;;;;;-1.68;72.26;102372.78;5049659;28;20044;-81
2022/12/21 06:09:07;;;;;;;3.65;3.15;;;;;;;-1.79;72.64;102375.00;5049407;28;20448;-79
2022/12/21 06:11:32;;;;;;;9.38;4.95;;;;;;;-1.64;72.34;102391.50;5069051;28;20035;-81
2022/12/21 06:13:58;;;;;;;6.57;5.90;;;;;;;-1.81;72.24;102351.28;5052075;28;20473;-81
2022/12/21 06:16:25;;;;;;;6.57;5.43;;;;;;;-1.53;72.32;102388.47;5066553;28;20056;-80
2022/12/21 06:18:50;;;;;;;9.40;7.20;;;;;;;-1.72;71.60;102360.84;5052191;28;20049;-84
2022/12/21 06:21:16;;;;;;;6.22;4.20;;;;;;;-1.55;71.83;102384.16;5053040;28;20115;-82
2022/12/21 06:23:42;;;;;;;16.67;9.55;;;;;;;-1.62;71.40;102380.59;5069321;28;20058;-78
2022/12/21 06:26:09;;;;;;;17.08;7.40;;;;;;;-1.68;71.39;102362.63;5050071;28;20115;-79
2022/12/21 06:28:35;;;;;;;22.88;6.90;;;;;;;-1.87;71.74;102352.75;5069941;28;20057;-88
2022/12/21 06:31:02;;;;;;;8.85;5.53;;;;;;;-1.76;71.87;102386.94;5031241;28;20445;-82
2022/12/21 06:33:28;;;;;;;12.50;4.72;;;;;;;-1.93;72.38;102360.22;5057879;28;20425;-80
2022/12/21 06:35:57;;;;;;;8.27;5.60;;;;;;;-1.88;72.70;102374.72;5032669;28;20029;-80
2022/12/21 06:38:23;;;;;;;6.63;5.82;;;;;;;-1.90;72.79;102365.38;5056116;28;20040;-78
2022/12/21 06:40:56;;;;;;;5.78;3.95;;;;;;;-1.83;72.67;102374.88;5066081;28;20402;-76
2022/12/21 06:43:22;;;;;;;11.93;4.60;;;;;;;-1.79;72.55;102376.69;5068971;28;20085;-89
2022/12/21 06:45:58;;;;;;;7.03;5.07;;;;;;;-2.03;72.38;102333.72;5036297;28;20021;-79
2022/12/21 06:48:24;;;;;;;3.20;2.35;;;;;;;-1.88;72.30;102366.25;5068295;28;20028;-76
2022/12/21 06:50:54;;;;;;;12.27;5.10;;;;;;;-1.74;72.16;102382.78;5052266;28;20029;-86
2022/12/21 06:53:20;;;;;;;12.32;4.97;;;;;;;-1.74;72.25;102392.91;5035693;28;20497;-84
2022/12/21 06:55:46;;;;;;;13.40;6.57;;;;;;;-1.81;72.71;102375.78;5065005;28;20112;-76
2022/12/21 06:58:12;;;;;;;8.13;4.38;;;;;;;-1.79;72.67;102380.09;5048370;28;20033;-77
2022/12/21 07:00:37;;;;;;;15.15;4.57;;;;;;;-2.00;72.73;102348.16;5024070;28;20059;-77
2022/12/21 07:03:03;;;;;;;5.68;4.18;;;;;;;-1.84;72.81;102385.84;5066222;28;20426;-83
2022/12/21 07:05:29;;;;;;;18.40;4.32;;;;;;;-1.81;72.92;102391.88;5035344;28;20029;-85
2022/12/21 07:07:54;;;;;;;7.53;5.22;;;;;;;-1.87;72.83;102371.41;5048209;28;20036;-88
2022/12/21 07:10:20;;;;;;;11.15;5.88;;;;;;;-1.86;72.66;102354.50;5032068;28;20033;-79
2022/12/21 07:12:45;;;;;;;6.82;4.88;;;;;;;-1.76;72.73;102381.88;5048188;28;20025;-87
2022/12/21 07:15:11;;;;;;;14.43;7.15;;;;;;;-1.67;72.75;102394.84;5060291;28;20118;-91
2022/12/21 07:17:36;;;;;;;6.88;5.45;;;;;;;-1.60;72.43;102394.16;5046950;28;20502;-78
2022/12/21 07:20:02;;;;;;;11.10;7.95;;;;;;;-1.73;72.60;102387.03;5068022;28;20029;-78
2022/12/21 07:22:27;;;;;;;5.85;2.75;;;;;;;-1.64;72.32;102389.84;5063998;28;20389;-84
2022/12/21 07:24:53;;;;;;;9.10;5.30;;;;;;;-1.84;72.48;102350.34;5035652;28;20024;-79
2022/12/21 07:27:18;;;;;;;5.88;4.35;;;;;;;-1.66;72.36;102383.88;5064095;28;20490;-77
2022/12/21 07:29:44;;;;;;;3.17;2.50;;;;;;;-1.50;72.46;102398.69;5048559;28;20086;-78
2022/12/21 07:32:10;;;;;;;12.60;4.75;;;;;;;-1.62;72.01;102383.13;5048482;28;20037;-83
2022/12/21 07:34:35;;;;;;;6.53;4.07;;;;;;;-1.49;71.52;102389.41;5065586;28;20075;-77
2022/12/21 07:37:01;;;;;;;4.03;3.45;;;;;;;-1.59;71.71;102387.41;5058347;28;20079;-79
2022/12/21 07:39:26;;;;;;;8.48;5.18;;;;;;;-1.70;72.02;102366.81;5063660;28;20021;-84
2022/12/21 07:41:52;;;;;;;8.13;6.65;;;;;;;-1.82;72.29;102343.63;5076932;28;20402;-80
2022/12/21 07:44:17;;;;;;;4.35;3.10;;;;;;;-1.55;72.23;102363.88;5051778;28;20060;-76
2022/12/21 07:46:44;;;;;;;7.93;4.45;;;;;;;-1.55;72.18;102364.72;5052986;28;20032;-79
2022/12/21 07:49:09;;;;;;;12.90;6.30;;;;;;;-1.57;72.20;102357.88;5076350;28;20062;-78
2022/12/21 07:51:35;;;;;;;11.77;4.82;;;;;;;-1.42;71.81;102365.06;5072083;28;20024;-77
2022/12/21 07:54:00;;;;;;;12.60;7.53;;;;;;;-1.54;71.60;102341.06;5055331;28;20058;-83
2022/12/21 07:56:26;;;;;;;17.98;5.55;;;;;;;-1.67;71.89;102326.31;5038274;28;20410;-79
2022/12/21 07:58:51;;;;;;;7.75;5.80;;;;;;;-1.66;71.55;102330.56;5071686;28;20406;-87
2022/12/21 08:01:19;;;;;;;10.13;7.15;;;;;;;-1.63;72.10;102334.88;5053859;28;20410;-77
2022/12/21 08:03:47;;;;;;;13.80;6.43;;;;;;;-1.53;72.18;102358.00;5054826;28;20032;-79
2022/12/21 08:06:13;;;;;;;14.13;5.95;;;;;;;-1.50;71.80;102342.84;5054521;28;20025;-79
2022/12/21 08:08:38;;;;;;;15.35;7.32;;;;;;;-1.63;71.77;102312.88;5071380;28;20028;-78
2022/12/21 08:11:04;;;;;;;16.83;5.70;;;;;;;-1.40;71.45;102345.66;5063391;28;20021;-82
2022/12/21 08:13:30;;;;;;;23.73;7.93;;;;;;;-1.57;71.52;102325.75;5067106;28;20443;-84
2022/12/21 08:16:00;;;;;;;9.40;6.20;;;;;;;-1.52;72.15;102343.63;5068212;28;20083;-77
2022/12/21 08:18:26;;;;;;;21.98;9.68;;;;;;;-1.39;72.38;102365.13;5051458;28;20514;-90
2022/12/21 08:20:53;;;;;;;14.55;10.10;;;;;;;-1.50;72.58;102357.22;5034999;28;20486;-77
2022/12/21 08:23:19;;;;;;;25.45;8.75;;;;;;;-1.49;72.92;102352.19;5063022;28;20036;-82
2022/12/21 08:25:44;;;;;;;8.02;6.30;;;;;;;-1.34;72.48;102343.28;5050967;28;20029;-88
2022/12/21 08:28:10;;;;;;;7.75;4.20;;;;;;;-1.40;72.32;102338.88;5054452;28;20505;-86
2022/12/21 08:30:36;;;;;;;13.50;6.82;;;;;;;-1.29;72.15;102346.78;5067720;28;20798;-91
2022/12/21 08:33:01;;;;;;;16.55;6.75;;;;;;;-1.19;71.66;102343.69;5051327;28;20025;-87
2022/12/21 08:35:28;;;;;;;15.75;8.65;;;;;;;-1.19;71.88;102328.44;5053553;28;20063;-86
2022/12/21 08:37:54;;;;;;;16.02;9.13;;;;;;;-1.28;71.45;102302.81;5067077;28;20266;-78
2022/12/21 08:40:19;;;;;;;16.02;9.65;;;;;;;-1.18;71.25;102310.72;5048774;28;20469;-83
2022/12/21 08:42:45;;;;;;;10.23;6.07;;;;;;;-1.03;70.63;102317.88;5051034;28;20037;-77
2022/12/21 08:45:10;;;;;;;13.20;7.88;;;;;;;-1.00;70.30;102304.38;5068620;28;20077;-79
2022/12/21 08:47:36;;;;;;;11.90;8.32;;;;;;;-0.98;70.00;102297.69;5070769;28;20510;-86
2022/12/21 08:50:02;;;;;;;21.05;8.15;;;;;;;-0.80;70.01;102325.22;5054373;28;20119;-77
2022/12/21 08:52:28;;;;;;;12.85;8.18;;;;;;;-0.98;70.28;102280.75;5053491;28;20139;-84
2022/12/21 08:54:53;;;;;;;12.82;8.43;;;;;;;-0.78;70.51;102321.03;5066371;28;20037;-84
2022/12/21 08:57:19;;;;;;;25.98;11.88;;;;;;;-0.74;70.55;102315.22;5065590;28;20029;-81
2022/12/21 08:59:45;;;;;;;7.15;4.38;;;;;;;-0.48;70.89;102313.28;5062088;28;20036;-81
2022/12/21 09:02:10;;;;;;;12.93;7.18;;;;;;;-0.14;69.39;102320.00;5069613;28;20020;-83
2022/12/21 09:04:36;;;;;;;16.30;11.63;;;;;;;-0.23;68.22;102312.16;5044329;28;20033;-85
2022/12/21 09:07:01;;;;;;;20.35;8.43;;;;;;;-0.12;68.05;102310.69;5053279;28;20457;-80
2022/12/21 09:09:27;;;;;;;14.80;6.25;;;;;;;-0.20;68.04;102302.91;5068810;28;20111;-79
2022/12/21 09:11:52;;;;;;;17.45;9.93;;;;;;;-0.22;68.93;102268.09;5066812;28;20052;-77
2022/12/21 09:14:18;;;;;;;16.05;7.95;;;;;;;-0.05;67.05;102289.66;5057542;28;20067;-81
2022/12/21 09:16:43;;;;;;;17.15;9.35;;;;;;;-0.07;67.75;102293.88;5070060;28;20033;-80
2022/12/21 09:19:09;;;;;;;16.73;9.10;;;;;;;-0.06;67.32;102295.59;5061774;28;20068;-84
2022/12/21 09:21:34;;;;;;;26.75;9.40;;;;;;;-0.31;67.54;102284.84;5050458;28;20116;-87
2022/12/21 09:24:00;;;;;;;10.30;6.88;;;;;;;-0.34;68.50;102283.94;5059791;28;20085;-82
2022/12/21 09:26:25;;;;;;;19.50;8.32;;;;;;;-0.65;68.68;102250.19;5060310;28;20017;-83
2022/12/21 09:28:51;;;;;;;22.90;7.90;;;;;;;-0.07;69.32;102278.59;5070333;28;20029;-82
2022/12/21 09:31:18;;;;;;;11.63;7.40;;;;;;;0.03;68.65;102277.09;5071043;28;20449;-79
2022/12/21 09:33:44;;;;;;;15.27;8.95;;;;;;;-0.05;68.12;102276.94;5051607;28;20043;-77
2022/12/21 09:36:10;;;;;;;12.07;6.40;;;;;;;0.00;67.69;102265.19;5038113;28;20032;-83
2022/12/21 09:38:35;;;;;;;9.93;6.40;;;;;;;-0.19;67.57;102260.53;5043139;28;20495;-83
2022/12/21 09:41:28;;;;;;;19.77;8.93;;;;;;;-0.07;68.44;102264.19;5036842;28;20063;-81
2022/12/21 09:44:18;;;;;;;13.93;9.73;;;;;;;-0.02;67.83;102269.38;5066498;28;20082;-79
2022/12/21 09:46:44;;;;;;;17.55;8.15;;;;;;;-0.20;67.55;102264.75;5070077;28;20027;-78
2022/12/21 09:49:17;;;;;;;10.85;8.05;;;;;;;-0.45;67.99;102219.28;5053261;28;20032;-79
2022/12/21 09:51:50;;;;;;;12.82;5.43;;;;;;;-0.44;68.39;102243.88;5070267;28;20036;-84
2022/12/21 09:54:20;;;;;;;21.08;12.98;;;;;;;-0.39;68.88;102238.09;5069745;28;20028;-82
2022/12/21 09:56:47;;;;;;;17.45;7.35;;;;;;;-0.20;68.63;102256.25;5052880;28;20036;-82
2022/12/21 09:59:14;;;;;;;23.05;7.72;;;;;;;-0.45;68.69;102219.28;5053203;28;20032;-83
2022/12/21 10:01:58;;;;;;;13.77;7.03;;;;;;;-0.35;68.93;102250.03;5067801;28;20036;-85
2022/12/21 10:04:35;;;;;;;16.88;7.28;;;;;;;-0.16;69.33;102253.81;5069888;28;20044;-81
2022/12/21 10:07:27;;;;;;;9.82;6.97;;;;;;;-0.16;69.18;102245.34;5068422;28;20056;-83
2022/12/21 10:10:10;;;;;;;10.57;7.57;;;;;;;0.03;68.88;102238.94;5049232;28;20036;-91
2022/12/21 10:12:58;;;;;;;19.00;5.63;;;;;;;0.00;67.67;102234.66;5049499;28;20021;-82
2022/12/21 10:15:41;;;;;;;9.63;5.13;;;;;;;-0.19;68.37;102232.56;5062574;28;20090;-75
2022/12/21 10:18:19;;;;;;;12.57;5.90;;;;;;;-0.36;68.73;102205.09;5070127;28;20470;-80
2022/12/21 10:20:58;;;;;;;10.77;7.63;;;;;;;-0.25;68.49;102218.03;5051987;28;20059;-81
2022/12/21 10:23:24;;;;;;;15.95;6.60;;;;;;;-0.24;68.33;102218.88;5051890;28;20043;-80
2022/12/21 10:25:52;;;;;;;8.80;6.55;;;;;;;-0.31;67.98;102208.56;5069977;28;20017;-87
2022/12/21 10:28:23;;;;;;;12.93;6.10;;;;;;;-0.19;69.04;102205.44;5047369;28;20112;-85
2022/12/21 10:31:04;;;;;;;8.30;5.80;;;;;;;-0.55;69.05;102184.31;5048328;28;20021;-81
2022/12/21 10:33:30;;;;;;;24.77;10.48;;;;;;;-0.55;69.69;102191.94;5032713;28;20024;-82
2022/12/21 10:35:59;;;;;;;11.50;6.32;;;;;;;-0.48;69.19;102192.13;5042528;28;20062;-92
2022/12/21 10:38:24;;;;;;;9.48;6.05;;;;;;;-0.50;68.97;102188.66;5052632;28;20321;-81
2022/12/21 10:40:52;;;;;;;14.00;9.30;;;;;;;-0.64;69.67;102198.53;5069200;28;20029;-83
2022/12/21 10:43:18;;;;;;;14.30;9.05;;;;;;;-0.70;70.44;102167.03;5052457;28;21007;-84
2022/12/21 10:45:43;;;;;;;18.63;7.05;;;;;;;-0.78;69.75;102154.19;5035554;28;20043;-83
2022/12/21 10:48:10;;;;;;;16.55;9.00;;;;;;;-0.70;70.67;102184.81;5068595;28;20505;-83
2022/12/21 10:50:39;;;;;;;21.30;12.52;;;;;;;-0.72;69.81;102174.63;5068443;28;20029;-82
2022/12/21 10:53:26;;;;;;;12.32;8.82;;;;;;;-0.63;70.72;102182.47;5068821;28;20086;-82
2022/12/21 10:55:57;;;;;;;16.63;9.45;;;;;;;-0.56;70.43;102175.84;5051875;28;20029;-83
2022/12/21 10:58:26;;;;;;;28.60;11.15;;;;;;;-0.49;70.02;102176.81;5068644;28;20029;-80
2022/12/21 11:00:56;;;;;;;9.48;5.53;;;;;;;-0.53;69.68;102159.78;5085943;28;20025;-83
2022/12/21 11:03:22;;;;;;;16.85;9.57;;;;;;;-0.49;69.22;102157.34;5052494;28;20086;-82
2022/12/21 11:05:47;;;;;;;12.73;7.53;;;;;;;-0.68;69.77;102155.25;5068620;28;20024;-81
2022/12/21 11:08:13;;;;;;;15.02;9.85;;;;;;;-0.84;70.84;102160.81;5068394;28;20025;-80
2022/12/21 11:10:39;;;;;;;28.30;9.25;;;;;;;-1.19;70.99;102088.03;5068545;28;20024;-78
2022/12/21 11:13:05;;;;;;;18.60;11.00;;;;;;;-0.85;70.89;102146.38;5069584;28;20063;-84
2022/12/21 11:15:30;;;;;;;8.90;5.53;;;;;;;-0.88;70.89;102142.97;5068627;28;20448;-82
2022/12/21 11:17:56;;;;;;;24.92;8.95;;;;;;;-0.91;71.22;102145.41;5072027;28;20117;-79
2022/12/21 11:20:21;;;;;;;17.10;9.77;;;;;;;-1.10;71.65;102122.97;5072282;28;20039;-79
2022/12/21 11:22:47;;;;;;;28.17;9.73;;;;;;;-1.02;71.78;102153.63;5054439;28;20029;-80
2022/12/21 11:25:18;;;;;;;29.15;9.50;;;;;;;-1.12;72.02;102133.91;5055982;28;20032;-78
2022/12/21 11:27:44;;;;;;;17.13;8.07;;;;;;;-0.96;72.44;102133.44;5055295;28;20064;-82
2022/12/21 11:30:35;;;;;;;18.73;10.77;;;;;;;-0.78;72.17;102143.16;5072185;28;20448;-82
2022/12/21 11:33:01;;;;;;;16.73;9.10;;;;;;;-0.78;71.03;102130.47;5072211;28;20020;-85
2022/12/21 11:35:30;;;;;;;18.10;6.78;;;;;;;-0.88;71.74;102116.69;5055992;28;20028;-91
2022/12/21 11:38:03;;;;;;;22.75;9.10;;;;;;;-0.81;71.86;102122.75;5053552;28;20123;-84
2022/12/21 11:40:29;;;;;;;15.50;11.77;;;;;;;-0.80;71.74;102101.59;5050955;28;20478;-81
2022/12/21 11:43:02;;;;;;;33.55;10.10;;;;;;;-0.67;71.31;102112.06;5070368;28;20077;-80
2022/12/21 11:45:58;;;;;;;14.00;8.98;;;;;;;-0.55;70.96;102101.28;5068672;28;20020;-82